Ship Status Report: callsign BAREU11

sailwx.info

Track history (hours):
 
Tides and Currents Weather Stations Pressure Air Temp Water Temp Dewpoint Dewpoint Depression Visibility Wind Speed Wind Dir Waves Ship Positions

Callsign BAREU11 (name unknown)

Last reported at 2016-May-20 14:00 UTC. Time now 2016-Dec-03 15:39 UTC.
Position N 37°30' W 041°06'.
Warning: this ship's position is months out of date.

Barometer 1021.4 mb

Date/timePositionNaut miles runAvg speedWind from/ knotsBaromVisibWave heightAir tempDewpointWater temp
2016-May-20 14:00N 37°30' W 041°06'1515.5 1021.4
2016-May-20 13:00N 37°24' W 041°24'2322.5 1021.6
2016-May-20 12:00N 37°12' W 041°48'1918.7 1021.7
2016-May-20 11:00N 37°00' W 042°06'1615.6 1021.9
2016-May-20 10:00N 36°54' W 042°24'2322.7 1021.7
2016-May-20 09:00N 36°42' W 042°48'1918.8 1021.9
2016-May-20 08:00N 36°30' W 043°06'2020.2 1021.9
2016-May-20 07:00N 36°24' W 043°30'1918.8 1022.2
2016-May-20 06:00N 36°12' W 043°48'2322.8 1022.7
2016-May-20 05:00N 36°00' W 044°12'1918.9 1023.3
2016-May-20 04:00N 35°48' W 044°30'2322.9 1024.1
2016-May-20 03:00N 35°36' W 044°54'1615.8 1025.1
2016-May-20 02:00N 35°30' W 045°12'2323.0 1025.8
2016-May-20 01:00N 35°18' W 045°36'1919.0 1026.4
2016-May-20 00:00N 35°06' W 045°54'1919.0 1026.5
2016-May-19 23:00N 34°54' W 046°12'2323.1 1026.4
2016-May-19 22:00N 34°42' W 046°36'1919.1 1026.1
2016-May-19 21:00N 34°30' W 046°54'1919.1 1025.9
2016-May-19 20:00N 34°18' W 047°12'1616.0 1025.8
2016-May-19 19:00N 34°12' W 047°30'1919.1 1025.9
2016-May-19 18:00N 34°00' W 047°48'2323.3 1026.3
2016-May-19 17:00N 33°48' W 048°12'1919.2 1026.8
2016-May-19 16:00N 33°36' W 048°30'1919.2 1027.1
2016-May-19 15:00N 33°24' W 048°48'1919.2 1027.4
2016-May-19 14:00N 33°12' W 049°06'1919.3 1027.7
2016-May-19 13:00N 33°00' W 049°24'2323.5 1027.5
2016-May-19 12:00N 32°48' W 049°48'1616.3 1027.6
2016-May-19 11:00N 32°42' W 050°06'1919.3 1027.6
2016-May-19 10:00N 32°30' W 050°24'1919.4 1027.4
2016-May-19 09:00N 32°18' W 050°42'1919.4 1027.0
2016-May-19 08:00N 32°06' W 051°00'3919.4 1026.7
2016-May-19 06:00N 31°42' W 051°36'1919.5 1027.4
2016-May-19 05:00N 31°30' W 051°54'1919.5 1027.3
2016-May-19 04:00N 31°18' W 052°12'2019.5 1027.8
2016-May-19 03:00N 31°06' W 052°30'1615.8 1028.1
2016-May-19 02:00N 30°54' W 052°42'1716.6 1028.5
2016-May-19 01:00N 30°48' W 053°00'2019.6 1028.5
2016-May-19 00:00N 30°36' W 053°18'2019.6 1028.0
2016-May-18 23:00N 30°24' W 053°36'2019.6 1027.7
2016-May-18 22:00N 30°12' W 053°54'2019.7 1027.4
2016-May-18 21:00N 30°00' W 054°12'1615.9 1026.8
2016-May-18 20:00N 29°48' W 054°24'3919.7 1026.8
2016-May-18 18:00N 29°24' W 055°00'2019.8 1026.7
2016-May-18 17:00N 29°12' W 055°18'2019.8 1026.8
2016-May-18 16:00N 29°00' W 055°36'1615.9 1026.8
2016-May-18 15:00N 28°48' W 055°48'4019.8 1027.1
2016-May-18 13:00N 28°24' W 056°24'2019.9 1026.9
2016-May-18 12:00N 28°12' W 056°42'2019.9 1026.6
2016-May-18 11:00N 28°00' W 057°00'3617.9 1026.0
2016-May-18 09:00N 27°36' W 057°30'2020.0 1024.5
2016-May-18 08:00N 27°24' W 057°48'4020.0 1024.1
2016-May-18 06:00N 27°00' W 058°24'1616.1 1024.2
2016-May-18 05:00N 26°48' W 058°36'4422.0 1024.4
2016-May-18 03:00N 26°18' W 059°12'2020.1 1025.2
2016-May-18 02:00N 26°06' W 059°30'1616.1 1025.3
2016-May-18 01:00N 25°54' W 059°42'2020.2 1025.4
2016-May-18 00:00N 25°42' W 060°00'2020.2 1024.4
2016-May-17 23:00N 25°30' W 060°18'3618.1 1024.3
2016-May-17 21:00N 25°06' W 060°48'2424.3 1023.4
2016-May-17 20:00N 24°48' W 061°06'1616.2 1023.2
2016-May-17 19:00N 24°36' W 061°18'2020.3 1023.2
2016-May-17 18:00N 24°24' W 061°36'1616.2 1023.1
2016-May-17 17:00N 24°12' W 061°48'2020.3 1023.1
2016-May-17 16:00N 24°00' W 062°06'1616.3 1023.7
2016-May-17 15:00N 23°48' W 062°18'2020.4 1024.3
2016-May-17 14:00N 23°36' W 062°36'2020.4 1024.2
2016-May-17 13:00N 23°24' W 062°54'1616.3 1023.8
2016-May-17 12:00N 23°12' W 063°06'2020.4 1023.0
2016-May-17 11:00N 23°00' W 063°24'1616.3 1022.3
2016-May-17 10:00N 22°48' W 063°36'2424.5 1021.6
2016-May-17 09:00N 22°30' W 063°54'1616.3 1020.8
2016-May-17 08:00N 22°18' W 064°06'1616.4 1020.5
2016-May-17 07:00N 22°06' W 064°18'2120.6 1020.5
2016-May-17 06:00N 21°54' W 064°36'2120.6 1020.7
2016-May-17 05:00N 21°42' W 064°54'1616.4 1021.0
2016-May-17 04:00N 21°30' W 065°06'2121.2 1021.0
2016-May-17 03:00N 21°12' W 065°18'2120.6 1021.1
2016-May-17 02:00N 21°00' W 065°36'2120.7 1020.8
2016-May-17 01:00N 20°48' W 065°54'1616.4 1020.3
2016-May-17 00:00N 20°36' W 066°06'2120.7 1019.7
2016-May-16 23:00N 20°24' W 066°24'1616.5 1019.2
2016-May-16 22:00N 20°12' W 066°36'2121.2 1018.7
2016-May-16 21:00N 19°54' W 066°48'2120.8 1018.0
2016-May-16 20:00N 19°42' W 067°06'1616.5 1017.9
2016-May-16 19:00N 19°30' W 067°18'2120.8 1017.7
2016-May-16 18:00N 19°18' W 067°36'2121.3 1018.2
2016-May-16 17:00N 19°00' W 067°48'1313.3 1018.8
2016-May-16 16:00N 18°48' W 067°54'2121.3 1018.9
2016-May-16 15:00N 18°30' W 068°06'2121.3 1019.2
2016-May-16 14:00N 18°12' W 068°18'2120.9 1018.8
2016-May-16 13:00N 18°00' W 068°36'1818.1 1018.0
2016-May-16 12:00N 18°06' W 068°54'1818.1 1017.4
2016-May-16 11:00N 18°12' W 069°12'2120.9 1016.4
2016-May-16 10:00N 18°24' W 069°30'6 0.3 1016.4
2016-May-15 17:00N 18°24' W 069°36'0 0.0 1017.7
2016-May-15 16:00N 18°24' W 069°36'0 0.0 1017.9
2016-May-15 14:00N 18°24' W 069°36'8 4.1 1017.8
2016-May-15 12:00N 18°18' W 069°42'13 4.4 1017.4
2016-May-15 09:00N 18°06' W 069°48'1312.9 1015.2
2016-May-15 08:00N 18°00' W 070°00'8 8.3 1014.9
2016-May-15 07:00N 17°54' W 070°06'1716.6 1015.1
2016-May-15 06:00N 17°42' W 070°18'1716.6 1015.3
2016-May-15 05:00N 17°30' W 070°30'1312.9 1015.8
2016-May-15 04:00N 17°24' W 070°42'0 0.0 1016.7
2016-May-15 03:00N 17°24' W 070°42'6 5.7 1017.0
2016-May-15 02:00N 17°24' W 070°36'0 0.0 1016.6
2016-May-15 01:00N 17°24' W 070°36'0 0.0 1016.0
2016-May-14 22:00N 17°24' W 070°36'0 0.0 1014.5
2016-May-14 21:00N 17°24' W 070°36'6 5.7 1014.1
2016-May-14 20:00N 17°24' W 070°30'0 0.0 1014.4
2016-May-14 19:00N 17°24' W 070°30'0 0.0 1014.9
2016-May-14 18:00N 17°24' W 070°30'0 0.0 1015.2
2016-May-14 17:00N 17°24' W 070°30'6 5.7 1015.5
2016-May-14 16:00N 17°24' W 070°24'0 0.0 1015.9
2016-May-14 15:00N 17°24' W 070°24'0 0.0 1016.2
2016-May-14 14:00N 17°24' W 070°24'6 1.9 1016.2
2016-May-14 11:00N 17°24' W 070°18'6 5.7 1015.4
2016-May-14 10:00N 17°24' W 070°24'1716.6 1014.4
2016-May-14 09:00N 17°12' W 070°36'1716.6 1013.6
2016-May-14 08:00N 17°00' W 070°48'1918.9 1013.1
2016-May-14 07:00N 16°42' W 070°54'1716.6 1013.0
2016-May-14 06:00N 16°30' W 071°06'1716.6 1013.5
2016-May-14 05:00N 16°18' W 071°18'2121.4 1013.8
2016-May-14 04:00N 16°00' W 071°30'1716.6 1014.1
2016-May-14 03:00N 15°48' W 071°42'3818.9 1014.1
2016-May-14 01:00N 15°18' W 072°06'1716.7 1013.0
2016-May-14 00:00N 15°06' W 072°18'1716.7 1012.0
2016-May-13 23:00N 14°54' W 072°30'1918.9 1011.2
2016-May-13 22:00N 14°36' W 072°36'1716.7 1010.5
2016-May-13 21:00N 14°24' W 072°48'1716.7 1010.3
2016-May-13 20:00N 14°12' W 073°00'2121.4 1010.2
2016-May-13 19:00N 13°54' W 073°12'1716.7 1010.9
2016-May-13 18:00N 13°42' W 073°24'1716.7 1011.4
2016-May-13 17:00N 13°30' W 073°36'1716.7 1011.8
2016-May-13 16:00N 13°18' W 073°48'3517.4 1012.3
2016-May-13 14:00N 12°48' W 074°06'3416.8 1012.4
2016-May-13 12:00N 12°24' W 074°30'2121.5 1011.3
2016-May-13 11:00N 12°06' W 074°42'1716.8 1010.4
2016-May-13 10:00N 11°54' W 074°54'3517.4 1009.9
2016-May-13 08:00N 11°24' W 075°12'1716.8 1008.7
2016-May-13 07:00N 11°12' W 075°24'1313.4 1008.7
2016-May-13 06:00N 11°00' W 075°30'1716.8 1009.6
2016-May-13 05:00N 10°48' W 075°42'1918.9 1010.0
2016-May-13 04:00N 10°30' W 075°48'1716.8 1010.4
2016-May-13 03:00N 10°18' W 075°36'8 0.7 1011.2
2016-May-12 15:00N 10°24' W 075°30'8 8.4 1011.9
2016-May-12 14:00N 10°18' W 075°36'1211.8 1012.1
2016-May-12 13:00N 10°18' W 075°48'0 0.0 1011.8
2016-May-12 12:00N 10°18' W 075°48'6 5.9 1011.4
2016-May-12 11:00N 10°18' W 075°54'1211.8 1010.8
2016-May-12 10:00N 10°18' W 076°06'8 8.4 1010.0
2016-May-12 09:00N 10°12' W 076°12'6 5.9 1009.7
2016-May-12 08:00N 10°12' W 076°18'1211.8 1009.5
2016-May-12 07:00N 10°12' W 076°30'19 9.4 1010.1
2016-May-12 05:00N 10°06' W 076°48'1211.8 1011.9
2016-May-12 04:00N 10°06' W 077°00'6 5.9 1012.1
2016-May-12 03:00N 10°06' W 077°06'1211.8 1012.5
2016-May-12 02:00N 10°06' W 077°18'6 5.9 1012.1
2016-May-12 01:00N 10°06' W 077°24'1313.3 1011.8
2016-May-12 00:00N 10°00' W 077°36'1211.8 1011.0
2016-May-11 23:00N 10°00' W 077°48'6 5.9 1010.6
2016-May-11 22:00N 10°00' W 077°54'1211.8 1010.3
2016-May-11 21:00N 10°00' W 078°06'1313.3 1010.4
2016-May-11 20:00N 09°54' W 078°18'1211.8 1011.1
2016-May-11 19:00N 09°54' W 078°30'6 5.9 1011.8
2016-May-11 18:00N 09°54' W 078°36'1313.3 1012.5
2016-May-11 17:00N 09°48' W 078°48'1211.8 1013.0
2016-May-11 16:00N 09°48' W 079°00'6 5.9 1013.3
2016-May-11 15:00N 09°48' W 079°06'1211.8 1013.5
2016-May-11 14:00N 09°48' W 079°18'1211.8 1013.7
2016-May-11 13:00N 09°48' W 079°30'1313.3 1013.3
2016-May-11 12:00N 09°42' W 079°42'8 8.4 1013.0
2016-May-11 11:00N 09°36' W 079°48'1313.4 1012.5
2016-May-11 10:00N 09°24' W 079°54'0 0.0 1012.3
2016-May-11 00:00N 09°24' W 079°54'6 6.0 1011.9
2016-May-10 23:00N 09°18' W 079°54'6 0.8 1011.0
2016-May-10 15:00N 09°12' W 079°54'8 8.4 1011.2
2016-May-10 14:00N 09°06' W 079°48'   1011.3
Track history (hours):
 
Tides and Currents Weather Stations Pressure Air Temp Water Temp Dewpoint Dewpoint Depression Visibility Wind Speed Wind Dir Waves Ship Positions

Callsign BAREU11 (name unknown)

Last reported at 2016-May-20 14:00 UTC. Time now 2016-Dec-03 15:39 UTC.
Position N 37°30' W 041°06'.
Warning: this ship's position is months out of date.

Barometer 1021.4 mb

Date/timePositionNaut miles runAvg speedWind from/ knotsBaromVisibWave heightAir tempDewpointWater temp
2016-May-20 14:00N 37°30' W 041°06'1515.5 1021.4
2016-May-20 13:00N 37°24' W 041°24'2322.5 1021.6
2016-May-20 12:00N 37°12' W 041°48'1918.7 1021.7
2016-May-20 11:00N 37°00' W 042°06'1615.6 1021.9
2016-May-20 10:00N 36°54' W 042°24'2322.7 1021.7
2016-May-20 09:00N 36°42' W 042°48'1918.8 1021.9
2016-May-20 08:00N 36°30' W 043°06'2020.2 1021.9
2016-May-20 07:00N 36°24' W 043°30'1918.8 1022.2
2016-May-20 06:00N 36°12' W 043°48'2322.8 1022.7
2016-May-20 05:00N 36°00' W 044°12'1918.9 1023.3
2016-May-20 04:00N 35°48' W 044°30'2322.9 1024.1
2016-May-20 03:00N 35°36' W 044°54'1615.8 1025.1
2016-May-20 02:00N 35°30' W 045°12'2323.0 1025.8
2016-May-20 01:00N 35°18' W 045°36'1919.0 1026.4
2016-May-20 00:00N 35°06' W 045°54'1919.0 1026.5
2016-May-19 23:00N 34°54' W 046°12'2323.1 1026.4
2016-May-19 22:00N 34°42' W 046°36'1919.1 1026.1
2016-May-19 21:00N 34°30' W 046°54'1919.1 1025.9
2016-May-19 20:00N 34°18' W 047°12'1616.0 1025.8
2016-May-19 19:00N 34°12' W 047°30'1919.1 1025.9
2016-May-19 18:00N 34°00' W 047°48'2323.3 1026.3
2016-May-19 17:00N 33°48' W 048°12'1919.2 1026.8
2016-May-19 16:00N 33°36' W 048°30'1919.2 1027.1
2016-May-19 15:00N 33°24' W 048°48'1919.2 1027.4
2016-May-19 14:00N 33°12' W 049°06'1919.3 1027.7
2016-May-19 13:00N 33°00' W 049°24'2323.5 1027.5
2016-May-19 12:00N 32°48' W 049°48'1616.3 1027.6
2016-May-19 11:00N 32°42' W 050°06'1919.3 1027.6
2016-May-19 10:00N 32°30' W 050°24'1919.4 1027.4
2016-May-19 09:00N 32°18' W 050°42'1919.4 1027.0
2016-May-19 08:00N 32°06' W 051°00'3919.4 1026.7
2016-May-19 06:00N 31°42' W 051°36'1919.5 1027.4
2016-May-19 05:00N 31°30' W 051°54'1919.5 1027.3
2016-May-19 04:00N 31°18' W 052°12'2019.5 1027.8
2016-May-19 03:00N 31°06' W 052°30'1615.8 1028.1
2016-May-19 02:00N 30°54' W 052°42'1716.6 1028.5
2016-May-19 01:00N 30°48' W 053°00'2019.6 1028.5
2016-May-19 00:00N 30°36' W 053°18'2019.6 1028.0
2016-May-18 23:00N 30°24' W 053°36'2019.6 1027.7
2016-May-18 22:00N 30°12' W 053°54'2019.7 1027.4
2016-May-18 21:00N 30°00' W 054°12'1615.9 1026.8
2016-May-18 20:00N 29°48' W 054°24'3919.7 1026.8
2016-May-18 18:00N 29°24' W 055°00'2019.8 1026.7
2016-May-18 17:00N 29°12' W 055°18'2019.8 1026.8
2016-May-18 16:00N 29°00' W 055°36'1615.9 1026.8
2016-May-18 15:00N 28°48' W 055°48'4019.8 1027.1
2016-May-18 13:00N 28°24' W 056°24'2019.9 1026.9
2016-May-18 12:00N 28°12' W 056°42'2019.9 1026.6
2016-May-18 11:00N 28°00' W 057°00'3617.9 1026.0
2016-May-18 09:00N 27°36' W 057°30'2020.0 1024.5
2016-May-18 08:00N 27°24' W 057°48'4020.0 1024.1
2016-May-18 06:00N 27°00' W 058°24'1616.1 1024.2
2016-May-18 05:00N 26°48' W 058°36'4422.0 1024.4
2016-May-18 03:00N 26°18' W 059°12'2020.1 1025.2
2016-May-18 02:00N 26°06' W 059°30'1616.1 1025.3
2016-May-18 01:00N 25°54' W 059°42'2020.2 1025.4
2016-May-18 00:00N 25°42' W 060°00'2020.2 1024.4
2016-May-17 23:00N 25°30' W 060°18'3618.1 1024.3
2016-May-17 21:00N 25°06' W 060°48'2424.3 1023.4
2016-May-17 20:00N 24°48' W 061°06'1616.2 1023.2
2016-May-17 19:00N 24°36' W 061°18'2020.3 1023.2
2016-May-17 18:00N 24°24' W 061°36'1616.2 1023.1
2016-May-17 17:00N 24°12' W 061°48'2020.3 1023.1
2016-May-17 16:00N 24°00' W 062°06'1616.3 1023.7
2016-May-17 15:00N 23°48' W 062°18'2020.4 1024.3
2016-May-17 14:00N 23°36' W 062°36'2020.4 1024.2
2016-May-17 13:00N 23°24' W 062°54'1616.3 1023.8
2016-May-17 12:00N 23°12' W 063°06'2020.4 1023.0
2016-May-17 11:00N 23°00' W 063°24'1616.3 1022.3
2016-May-17 10:00N 22°48' W 063°36'2424.5 1021.6
2016-May-17 09:00N 22°30' W 063°54'1616.3 1020.8
2016-May-17 08:00N 22°18' W 064°06'1616.4 1020.5
2016-May-17 07:00N 22°06' W 064°18'2120.6 1020.5
2016-May-17 06:00N 21°54' W 064°36'2120.6 1020.7
2016-May-17 05:00N 21°42' W 064°54'1616.4 1021.0
2016-May-17 04:00N 21°30' W 065°06'2121.2 1021.0
2016-May-17 03:00N 21°12' W 065°18'2120.6 1021.1
2016-May-17 02:00N 21°00' W 065°36'2120.7 1020.8
2016-May-17 01:00N 20°48' W 065°54'1616.4 1020.3
2016-May-17 00:00N 20°36' W 066°06'2120.7 1019.7
2016-May-16 23:00N 20°24' W 066°24'1616.5 1019.2
2016-May-16 22:00N 20°12' W 066°36'2121.2 1018.7
2016-May-16 21:00N 19°54' W 066°48'2120.8 1018.0
2016-May-16 20:00N 19°42' W 067°06'1616.5 1017.9
2016-May-16 19:00N 19°30' W 067°18'2120.8 1017.7
2016-May-16 18:00N 19°18' W 067°36'2121.3 1018.2
2016-May-16 17:00N 19°00' W 067°48'1313.3 1018.8
2016-May-16 16:00N 18°48' W 067°54'2121.3 1018.9
2016-May-16 15:00N 18°30' W 068°06'2121.3 1019.2
2016-May-16 14:00N 18°12' W 068°18'2120.9 1018.8
2016-May-16 13:00N 18°00' W 068°36'1818.1 1018.0
2016-May-16 12:00N 18°06' W 068°54'1818.1 1017.4
2016-May-16 11:00N 18°12' W 069°12'2120.9 1016.4
2016-May-16 10:00N 18°24' W 069°30'6 0.3 1016.4
2016-May-15 17:00N 18°24' W 069°36'0 0.0 1017.7
2016-May-15 16:00N 18°24' W 069°36'0 0.0 1017.9
2016-May-15 14:00N 18°24' W 069°36'8 4.1 1017.8
2016-May-15 12:00N 18°18' W 069°42'13 4.4 1017.4
2016-May-15 09:00N 18°06' W 069°48'1312.9 1015.2
2016-May-15 08:00N 18°00' W 070°00'8 8.3 1014.9
2016-May-15 07:00N 17°54' W 070°06'1716.6 1015.1
2016-May-15 06:00N 17°42' W 070°18'1716.6 1015.3
2016-May-15 05:00N 17°30' W 070°30'1312.9 1015.8
2016-May-15 04:00N 17°24' W 070°42'0 0.0 1016.7
2016-May-15 03:00N 17°24' W 070°42'6 5.7 1017.0
2016-May-15 02:00N 17°24' W 070°36'0 0.0 1016.6
2016-May-15 01:00N 17°24' W 070°36'0 0.0 1016.0
2016-May-14 22:00N 17°24' W 070°36'0 0.0 1014.5
2016-May-14 21:00N 17°24' W 070°36'6 5.7 1014.1
2016-May-14 20:00N 17°24' W 070°30'0 0.0 1014.4
2016-May-14 19:00N 17°24' W 070°30'0 0.0 1014.9
2016-May-14 18:00N 17°24' W 070°30'0 0.0 1015.2
2016-May-14 17:00N 17°24' W 070°30'6 5.7 1015.5
2016-May-14 16:00N 17°24' W 070°24'0 0.0 1015.9
2016-May-14 15:00N 17°24' W 070°24'0 0.0 1016.2
2016-May-14 14:00N 17°24' W 070°24'6 1.9 1016.2
2016-May-14 11:00N 17°24' W 070°18'6 5.7 1015.4
2016-May-14 10:00N 17°24' W 070°24'1716.6 1014.4
2016-May-14 09:00N 17°12' W 070°36'1716.6 1013.6
2016-May-14 08:00N 17°00' W 070°48'1918.9 1013.1
2016-May-14 07:00N 16°42' W 070°54'1716.6 1013.0
2016-May-14 06:00N 16°30' W 071°06'1716.6 1013.5
2016-May-14 05:00N 16°18' W 071°18'2121.4 1013.8
2016-May-14 04:00N 16°00' W 071°30'1716.6 1014.1
2016-May-14 03:00N 15°48' W 071°42'3818.9 1014.1
2016-May-14 01:00N 15°18' W 072°06'1716.7 1013.0
2016-May-14 00:00N 15°06' W 072°18'1716.7 1012.0
2016-May-13 23:00N 14°54' W 072°30'1918.9 1011.2
2016-May-13 22:00N 14°36' W 072°36'1716.7 1010.5
2016-May-13 21:00N 14°24' W 072°48'1716.7 1010.3
2016-May-13 20:00N 14°12' W 073°00'2121.4 1010.2
2016-May-13 19:00N 13°54' W 073°12'1716.7 1010.9
2016-May-13 18:00N 13°42' W 073°24'1716.7 1011.4
2016-May-13 17:00N 13°30' W 073°36'1716.7 1011.8
2016-May-13 16:00N 13°18' W 073°48'3517.4 1012.3
2016-May-13 14:00N 12°48' W 074°06'3416.8 1012.4
2016-May-13 12:00N 12°24' W 074°30'2121.5 1011.3
2016-May-13 11:00N 12°06' W 074°42'1716.8 1010.4
2016-May-13 10:00N 11°54' W 074°54'3517.4 1009.9
2016-May-13 08:00N 11°24' W 075°12'1716.8 1008.7
2016-May-13 07:00N 11°12' W 075°24'1313.4 1008.7
2016-May-13 06:00N 11°00' W 075°30'1716.8 1009.6
2016-May-13 05:00N 10°48' W 075°42'1918.9 1010.0
2016-May-13 04:00N 10°30' W 075°48'1716.8 1010.4
2016-May-13 03:00N 10°18' W 075°36'8 0.7 1011.2
2016-May-12 15:00N 10°24' W 075°30'8 8.4 1011.9
2016-May-12 14:00N 10°18' W 075°36'1211.8 1012.1
2016-May-12 13:00N 10°18' W 075°48'0 0.0 1011.8
2016-May-12 12:00N 10°18' W 075°48'6 5.9 1011.4
2016-May-12 11:00N 10°18' W 075°54'1211.8 1010.8
2016-May-12 10:00N 10°18' W 076°06'8 8.4 1010.0
2016-May-12 09:00N 10°12' W 076°12'6 5.9 1009.7
2016-May-12 08:00N 10°12' W 076°18'1211.8 1009.5
2016-May-12 07:00N 10°12' W 076°30'19 9.4 1010.1
2016-May-12 05:00N 10°06' W 076°48'1211.8 1011.9
2016-May-12 04:00N 10°06' W 077°00'6 5.9 1012.1
2016-May-12 03:00N 10°06' W 077°06'1211.8 1012.5
2016-May-12 02:00N 10°06' W 077°18'6 5.9 1012.1
2016-May-12 01:00N 10°06' W 077°24'1313.3 1011.8
2016-May-12 00:00N 10°00' W 077°36'1211.8 1011.0
2016-May-11 23:00N 10°00' W 077°48'6 5.9 1010.6
2016-May-11 22:00N 10°00' W 077°54'1211.8 1010.3
2016-May-11 21:00N 10°00' W 078°06'1313.3 1010.4
2016-May-11 20:00N 09°54' W 078°18'1211.8 1011.1
2016-May-11 19:00N 09°54' W 078°30'6 5.9 1011.8
2016-May-11 18:00N 09°54' W 078°36'1313.3 1012.5
2016-May-11 17:00N 09°48' W 078°48'1211.8 1013.0
2016-May-11 16:00N 09°48' W 079°00'6 5.9 1013.3
2016-May-11 15:00N 09°48' W 079°06'1211.8 1013.5
2016-May-11 14:00N 09°48' W 079°18'1211.8 1013.7
2016-May-11 13:00N 09°48' W 079°30'1313.3 1013.3
2016-May-11 12:00N 09°42' W 079°42'8 8.4 1013.0
2016-May-11 11:00N 09°36' W 079°48'1313.4 1012.5
2016-May-11 10:00N 09°24' W 079°54'0 0.0 1012.3
2016-May-11 00:00N 09°24' W 079°54'6 6.0 1011.9
2016-May-10 23:00N 09°18' W 079°54'6 0.8 1011.0
2016-May-10 15:00N 09°12' W 079°54'8 8.4 1011.2
2016-May-10 14:00N 09°06' W 079°48'   1011.3

Dump ship's entire track history